Avon Lake, Iowa
Current Conditions -  °F | °C
As of 12:12 AM on Saturday 20 Dec 2014 (Local Time) from KDSM Reporting Station
Light Snow Light Snow  
Wind Chill: 27°   Ceiling: 800
Heat Index: 32°   Visibility: 6mi
Dew Point: 30°   Wind: 5mph
Humidity: 92%   Direction: 180°S
Pressure: 30.2"   Gusts: NA
Location:  41.4707°N, 93.4797°W
Report Text: KDSM 200612Z 18004KT 6SM -SN BR BKN008 OVC020 00/M01 A3020 RMK AO2 P0000 T00001011
Loading
Personal Weather Stations






























Interactive Weather Map New forecast layout! Learn more

10-Day Weather Forecast

Advertisements
Track Severe Weather on mobile